Terminal Aerodrome Forecast
Issued by NWS Goodland, KS

Home | Current Version | Previous Version | Text Only | Print | Product List | Glossary On
Versions: 1 2 3 4 5 6 7 8 9 10 11 12 13 14 15 16 17 18
000
FTUS43 KGLD 231918 AAA
TAFGLD
TAF AMD
KGLD 231918Z 2319/2418 35029G39KT P6SM BKN100
      TEMPO 2319/2321 2SM BLDU FU
     FM240000 33016G24KT P6SM SCT100
     FM240900 30018KT P6SM FEW150
     FM241600 32020G28KT P6SM SCT080 BKN150=

USA.gov is the U.S. government's official web portal to all federal, state and local government web resources and services.